Terminal Aerodrome Forecast
Issued by NWS Riverton, WY

Home | Current Version | Previous Version | Text Only | Print | Product List | Glossary On
Versions: 1 2 3 4 5 6 7 8 9 10 11 12 13 14 15 16 17
554
FTUS45 KRIW 240532
TAFRIW
TAF
KRIW 240532Z 2406/2506 07012KT P6SM SKC
     FM240800 03010KT P6SM SKC
     FM241800 08007KT P6SM SKC=

USA.gov is the U.S. government's official web portal to all federal, state and local government web resources and services.